| time (UTC) | temp C | wind direction | speed KPH | gust KPH | rain 1hr cm | rain 24hr cm | rain mn cm | humidity % | barometer mb |
| 20260504040039 | 13 | 213 | 0.0 | 1.6 | 0.00 | 0.33 | 0.33 | 72 | 1003.3 |
| 20260504034540 | 13 | 200 | 0.0 | 0.0 | 0.00 | 0.33 | 0.33 | 71 | 1003.5 |
| 20260504033028 | 13 | 200 | 0.0 | 0.0 | 0.00 | 0.33 | 0.33 | 69 | 1003.8 |
| 20260504031518 | 14 | 200 | 0.0 | 0.0 | 0.00 | 0.33 | 0.33 | 68 | 1003.8 |
| 20260504030013 | 14 | 224 | 0.0 | 1.6 | 0.00 | 0.33 | 0.33 | 67 | 1004.0 |
| 20260504024508 | 15 | 224 | 0.0 | 0.0 | 0.00 | 0.33 | 0.33 | 65 | 1003.9 |
| 20260504023002 | 15 | 224 | 0.0 | 0.0 | 0.00 | 0.33 | 0.33 | 63 | 1003.9 |
| 20260504021609 | 16 | 224 | 0.0 | 1.6 | 0.00 | 0.33 | 0.33 | 62 | 1003.8 |
| 20260504020051 | 16 | 218 | 0.0 | 3.2 | 0.00 | 0.33 | 0.33 | 60 | 1003.6 |
| 20260504014547 | 16 | 218 | 0.0 | 3.2 | 0.00 | 0.33 | 0.33 | 59 | 1003.4 |
| 20260504013042 | 17 | 218 | 0.0 | 4.8 | 0.00 | 0.33 | 0.33 | 58 | 1003.4 |
| 20260504011537 | 17 | 216 | 0.0 | 4.8 | 0.00 | 0.33 | 0.33 | 57 | 1003.3 |
| 20260504010033 | 17 | 219 | 0.0 | 6.4 | 0.00 | 0.33 | 0.33 | 55 | 1003.2 |
| 20260504004528 | 18 | 207 | 0.0 | 9.7 | 0.00 | 0.33 | 0.33 | 53 | 1003.2 |
| 20260504003020 | 18 | 221 | 0.0 | 9.7 | 0.00 | 0.33 | 0.33 | 52 | 1003.4 |
| 20260504001515 | 19 | 214 | 1.6 | 9.7 | 0.00 | 0.33 | 0.33 | 50 | 1003.4 |
| 20260504000010 | 20 | 250 | 1.6 | 6.4 | 0.00 | 0.33 | 0.33 | 48 | 1003.2 |
| 20260503234508 | 20 | 219 | 0.0 | 6.4 | 0.00 | 0.33 | 0.33 | 47 | 1003.2 |
| 20260503233059 | 20 | 217 | 0.0 | 6.4 | 0.00 | 0.33 | 0.33 | 46 | 1003.3 |
| 20260503231555 | 21 | 229 | 1.6 | 8.0 | 0.00 | 0.33 | 0.33 | 43 | 1003.3 |
| 20260503230047 | 21 | 227 | 3.2 | 9.7 | 0.00 | 0.33 | 0.33 | 43 | 1003.5 |
| 20260503224542 | 21 | 256 | 1.6 | 11.3 | 0.00 | 0.33 | 0.33 | 43 | 1003.6 |
| 20260503223038 | 21 | 218 | 1.6 | 16.1 | 0.00 | 0.33 | 0.33 | 44 | 1003.8 |
| 20260503221526 | 21 | 254 | 3.2 | 17.7 | 0.00 | 0.33 | 0.33 | 43 | 1003.8 |
| 20260503220023 | 21 | 232 | 3.2 | 11.3 | 0.00 | 0.33 | 0.33 | 42 | 1004.0 |
| 20260503214513 | 20 | 219 | 3.2 | 11.3 | 0.00 | 0.33 | 0.33 | 43 | 1004.1 |
| 20260503213005 | 20 | 214 | 3.2 | 11.3 | 0.00 | 0.33 | 0.33 | 43 | 1004.3 |
| 20260503211620 | 19 | 228 | 1.6 | 11.3 | 0.00 | 0.33 | 0.33 | 44 | 1004.7 |
| 20260503210049 | 19 | 195 | 1.6 | 20.9 | 0.00 | 0.33 | 0.33 | 44 | 1005.0 |
| 20260503204559 | 20 | 291 | 1.6 | 8.0 | 0.00 | 0.33 | 0.33 | 42 | 1005.3 |
| 20260503203039 | 20 | 215 | 3.2 | 14.5 | 0.00 | 0.33 | 0.33 | 40 | 1005.6 |
| 20260503201529 | 20 | 202 | 6.4 | 22.5 | 0.00 | 0.33 | 0.33 | 39 | 1005.7 |
| 20260503200021 | 19 | 292 | 1.6 | 14.5 | 0.00 | 0.33 | 0.33 | 42 | 1006.0 |
| 20260503194519 | 18 | 222 | 4.8 | 17.7 | 0.00 | 0.33 | 0.33 | 44 | 1006.2 |
| 20260503193006 | 18 | 210 | 3.2 | 25.7 | 0.00 | 0.33 | 0.33 | 49 | 1006.3 |
| 20260503191605 | 18 | 245 | 1.6 | 8.0 | 0.00 | 0.33 | 0.33 | 51 | 1006.6 |
| 20260503190053 | 17 | 150 | 1.6 | 11.3 | 0.00 | 0.33 | 0.33 | 57 | 1006.7 |
| 20260503184551 | 16 | 245 | 0.0 | 11.3 | 0.00 | 0.33 | 0.33 | 65 | 1007.1 |
| 20260503183038 | 14 | 150 | 3.2 | 14.5 | 0.00 | 0.33 | 0.33 | 67 | 1007.4 |
| 20260503181519 | 13 | 231 | 0.0 | 11.3 | 0.03 | 0.33 | 0.33 | 76 | 1007.6 |
| 20260503180024 | 12 | 229 | 0.0 | 4.8 | 0.05 | 0.33 | 0.33 | 83 | 1008.2 |
| 20260503174517 | 10 | 260 | 0.0 | 16.1 | 0.08 | 0.33 | 0.33 | 87 | 1008.4 |
| 20260503173131 | 9 | 217 | 0.0 | 6.4 | 0.13 | 0.33 | 0.33 | 88 | 1009.2 |
| 20260503171550 | 9 | 230 | 0.0 | 3.2 | 0.13 | 0.30 | 0.30 | 89 | 1009.8 |
| 20260503081543 | 7 | 226 | 0.0 | 1.6 | 0.00 | 0.00 | 0.00 | 65 | 1012.9 |
| 20260503071540 | 6 | 226 | 0.0 | 3.2 | 0.00 | 0.00 | 0.00 | 64 | 1013.0 |
| 20260503054520 | 7 | 213 | 0.0 | 3.2 | 0.00 | 0.00 | 0.00 | 61 | 1013.7 |
| 20260503053010 | 7 | 213 | 0.0 | 0.0 | 0.00 | 0.00 | 0.00 | 61 | 1013.9 |
| 20260503051506 | 7 | 213 | 0.0 | 0.0 | 0.00 | 0.00 | 0.00 | 60 | 1013.9 |
| 20260503050005 | 7 | 213 | 0.0 | 0.0 | 0.00 | 0.00 | 0.00 | 58 | 1014.1 |
| 20260503044504 | 7 | 213 | 0.0 | 0.0 | 0.00 | 0.00 | 0.00 | 58 | 1014.1 |
| 20260503043003 | 7 | 213 | 0.0 | 0.0 | 0.00 | 0.00 | 0.00 | 58 | 1014.1 |
| 20260503041502 | 8 | 176 | 0.0 | 0.0 | 0.00 | 0.00 | 0.00 | 58 | 1014.2 |